Time;durP1;ratioP1;P1;durP2;ratioP2;P2;SDS_P1;SDS_P2;PMS_P1;PMS_P2;Temp;Humidity;BMP_temperature;BMP_pressure;BME280_temperature;BME280_humidity;BME280_pressure;Samples;Min_cycle;Max_cycle;Signal;HPM_P1;HPM_P2
2021/10/18 00:00:08;;;;;;;;;7.00;7.00;;;;;21.17;41.52;101547.34;4997861;28;45832;-56
2021/10/18 00:02:34;;;;;;;;;7.00;7.00;;;;;21.16;41.69;101543.00;4998002;28;45235;-54
2021/10/18 00:04:59;;;;;;;;;7.00;7.00;;;;;21.16;41.37;101545.63;4998097;28;45556;-55
2021/10/18 00:07:24;;;;;;;;;8.00;7.50;;;;;21.16;41.70;101543.00;4998067;28;45282;-56
2021/10/18 00:09:50;;;;;;;;;8.00;8.00;;;;;21.14;41.86;101543.06;4997734;28;45255;-56
2021/10/18 00:12:16;;;;;;;;;7.25;7.25;;;;;21.15;41.42;101549.19;4997832;28;45373;-56
2021/10/18 00:14:42;;;;;;;;;9.50;9.00;;;;;21.14;41.20;101548.34;4997928;28;45231;-55
2021/10/18 00:17:07;;;;;;;;;7.00;7.00;;;;;21.13;41.36;101544.00;4997394;28;46408;-56
2021/10/18 00:19:33;;;;;;;;;12.00;9.00;;;;;21.12;41.51;101544.94;4996165;28;45279;-56
2021/10/18 00:21:58;;;;;;;;;8.00;8.00;;;;;21.13;41.53;101540.50;4998045;28;45354;-56
2021/10/18 00:24:23;;;;;;;;;10.00;9.00;;;;;21.13;41.57;101548.41;4997835;28;45496;-56
2021/10/18 00:26:49;;;;;;;;;10.25;9.00;;;;;21.10;41.39;101540.66;4997281;28;46644;-56
2021/10/18 00:29:14;;;;;;;;;9.25;7.25;;;;;21.11;41.72;101545.84;4997382;28;45372;-56
2021/10/18 00:31:39;;;;;;;;;6.50;6.50;;;;;21.11;41.95;101545.00;4997504;28;45368;-56
2021/10/18 00:34:05;;;;;;;;;9.25;7.75;;;;;21.10;41.74;101538.88;4997654;28;45428;-56
2021/10/18 00:36:30;;;;;;;;;7.25;7.25;;;;;21.11;41.51;101542.38;4997176;28;46189;-56
2021/10/18 00:38:56;;;;;;;;;9.50;8.50;;;;;21.10;41.40;101538.03;4997586;28;45456;-56
2021/10/18 00:41:21;;;;;;;;;8.50;8.50;;;;;21.09;41.87;101538.94;4997558;28;45354;-56
2021/10/18 00:43:49;;;;;;;;;7.25;7.00;;;;;21.09;41.76;101538.94;4997376;28;45547;-54
2021/10/18 00:46:20;;;;;;;;;11.00;9.75;;;;;21.08;41.62;101538.06;4997053;28;45428;-54
2021/10/18 00:48:45;;;;;;;;;9.50;9.50;;;;;21.09;41.32;101545.06;4997099;28;45397;-55
2021/10/18 00:51:11;;;;;;;;;9.50;9.00;;;;;21.08;41.71;101551.25;4997214;28;45370;-55
2021/10/18 00:53:36;;;;;;;;;9.00;7.25;;;;;21.09;41.55;101554.75;4997331;28;45654;-55
2021/10/18 00:56:02;;;;;;;;;8.75;8.00;;;;;21.08;41.34;101556.53;4995608;28;47366;-55
2021/10/18 00:58:27;;;;;;;;;9.50;8.00;;;;;21.08;41.93;101558.31;4997264;28;45326;-55
2021/10/18 01:00:53;;;;;;;;;9.00;8.25;;;;;21.07;41.43;101559.25;4995874;28;45339;-56
2021/10/18 01:03:21;;;;;;;;;9.00;9.00;;;;;21.07;41.54;101553.97;4996997;28;45389;-55
2021/10/18 01:05:47;;;;;;;;;9.75;9.75;;;;;21.07;41.44;101561.88;4996797;28;45336;-56
2021/10/18 01:08:14;;;;;;;;;7.50;6.25;;;;;21.06;41.80;101565.44;4996867;28;45294;-55
2021/10/18 01:10:40;;;;;;;;;10.00;10.00;;;;;21.05;41.59;101558.47;4996420;28;45360;-56
2021/10/18 01:13:05;;;;;;;;;9.00;9.00;;;;;21.05;41.70;101558.47;4997086;28;45405;-55
2021/10/18 01:15:31;;;;;;;;;9.25;8.50;;;;;21.05;41.49;101553.19;4996965;28;45596;-55
2021/10/18 01:17:56;;;;;;;;;9.00;8.75;;;;;21.06;41.98;101557.53;4978987;28;45377;-54
2021/10/18 01:20:37;;;;;;;;;8.25;7.75;;;;;21.05;41.54;101563.72;4996827;28;45366;-55
2021/10/18 01:23:03;;;;;;;;;9.00;9.00;;;;;21.04;41.46;101562.00;4997231;28;45602;-56
2021/10/18 01:25:29;;;;;;;;;10.75;8.00;;;;;21.04;41.76;101559.38;4997091;28;46647;-56
2021/10/18 01:27:55;;;;;;;;;11.00;7.75;;;;;21.04;41.29;101556.75;4996721;28;45406;-55
2021/10/18 01:30:21;;;;;;;;;10.00;9.00;;;;;21.01;41.27;101552.47;4996784;28;45409;-56
2021/10/18 01:32:47;;;;;;;;;6.25;5.50;;;;;21.04;41.32;101551.47;4995544;28;45536;-55
2021/10/18 01:35:12;;;;;;;;;9.50;9.50;;;;;21.03;41.42;101549.75;4996577;28;45524;-56
2021/10/18 01:37:39;;;;;;;;;10.00;10.00;;;;;21.01;41.58;101558.59;4996467;28;45342;-55
2021/10/18 01:40:09;;;;;;;;;14.00;8.25;;;;;21.01;41.66;101558.59;4996552;28;45398;-56
2021/10/18 01:42:35;;;;;;;;;9.50;9.50;;;;;21.02;41.79;101559.47;4996658;28;45421;-55
2021/10/18 01:45:01;;;;;;;;;10.00;7.50;;;;;21.01;41.70;101558.59;4996674;28;46274;-55
2021/10/18 01:47:27;;;;;;;;;9.00;8.00;;;;;20.99;41.41;101544.66;4996384;28;45258;-56
2021/10/18 01:49:54;;;;;;;;;7.25;7.25;;;;;21.00;41.43;101542.84;4996434;28;45458;-56
2021/10/18 01:52:19;;;;;;;;;10.00;9.25;;;;;21.00;41.85;101542.84;4996538;28;45321;-55
2021/10/18 01:54:46;;;;;;;;;11.00;9.00;;;;;20.99;41.66;101541.16;4996125;28;45485;-55
2021/10/18 01:57:11;;;;;;;;;8.75;8.00;;;;;20.99;41.42;101538.50;4996226;28;45704;-55
2021/10/18 01:59:37;;;;;;;;;9.25;9.00;;;;;20.98;41.63;101535.03;5011535;28;45351;-56
2021/10/18 02:02:02;;;;;;;;;9.00;8.00;;;;;20.97;41.94;101528.06;5012990;28;45282;-55
2021/10/18 02:04:27;;;;;;;;;11.00;9.00;;;;;20.97;41.47;101522.78;4999224;28;45357;-55
2021/10/18 02:06:53;;;;;;;;;8.00;7.75;;;;;20.97;41.44;101541.22;4999539;28;45274;-55
2021/10/18 02:09:18;;;;;;;;;8.00;8.00;;;;;20.96;41.39;101534.25;4999631;28;45229;-55
2021/10/18 02:11:43;;;;;;;;;9.00;9.00;;;;;20.96;41.17;101533.38;4999806;28;45353;-55
2021/10/18 02:14:09;;;;;;;;;10.75;8.50;;;;;20.97;41.33;101540.34;5014658;28;48374;-55
2021/10/18 02:16:34;;;;;;;;;11.00;8.00;;;;;20.96;41.15;101533.38;4999724;28;45413;-56
2021/10/18 02:18:59;;;;;;;;;8.50;8.25;;;;;20.96;41.79;101530.72;4999662;28;45306;-56
2021/10/18 02:21:25;;;;;;;;;8.75;8.75;;;;;20.94;41.22;101525.53;4999726;28;45489;-55
2021/10/18 02:23:50;;;;;;;;;7.50;7.50;;;;;20.95;41.27;101532.53;5014540;28;46073;-56
2021/10/18 02:26:15;;;;;;;;;8.00;7.00;;;;;20.95;41.26;101531.66;4999359;28;45329;-56
2021/10/18 02:28:41;;;;;;;;;10.00;7.25;;;;;20.94;41.16;101535.25;4999438;28;45839;-56
2021/10/18 02:31:06;;;;;;;;;12.25;9.00;;;;;20.95;41.38;101531.66;4999706;28;45555;-56
2021/10/18 02:33:31;;;;;;;;;9.00;9.00;;;;;20.93;41.10;101528.25;4999493;28;45356;-56
2021/10/18 02:35:56;;;;;;;;;9.00;7.75;;;;;20.93;41.47;101518.56;4999116;28;45347;-56
2021/10/18 02:38:22;;;;;;;;;7.75;7.75;;;;;20.94;41.62;101515.00;4999243;28;45406;-55
2021/10/18 02:40:47;;;;;;;;;11.00;10.25;;;;;20.92;41.71;101516.84;4998080;28;45337;-56
2021/10/18 02:43:12;;;;;;;;;8.00;7.25;;;;;20.89;41.71;101516.97;4998828;28;46314;-56
2021/10/18 02:45:38;;;;;;;;;9.50;9.50;;;;;20.91;41.32;101512.50;4998985;28;45366;-55
2021/10/18 02:48:04;;;;;;;;;9.25;9.25;;;;;20.92;41.29;101518.66;4999451;28;45409;-56
2021/10/18 02:50:29;;;;;;;;;10.75;9.00;;;;;20.91;41.32;101517.78;4999291;28;45227;-56
2021/10/18 02:52:55;;;;;;;;;8.50;8.50;;;;;20.91;41.72;101515.13;4998806;28;45408;-56
2021/10/18 02:55:20;;;;;;;;;8.75;8.75;;;;;20.89;41.43;101511.72;4998812;28;45405;-56
2021/10/18 02:57:45;;;;;;;;;9.00;9.00;;;;;20.91;41.78;101512.50;4999047;28;45752;-55
2021/10/18 03:00:11;;;;;;;;;10.25;10.00;;;;;20.90;41.04;101502.88;4999048;28;45578;-55
2021/10/18 03:02:37;;;;;;;;;9.25;8.25;;;;;20.89;41.53;101485.38;4998884;28;45408;-55
2021/10/18 03:05:02;;;;;;;;;8.50;8.50;;;;;20.89;41.53;101497.69;4998864;28;45309;-55
2021/10/18 03:07:28;;;;;;;;;7.25;7.25;;;;;20.88;41.26;101496.88;4999100;28;45416;-55
2021/10/18 03:09:53;;;;;;;;;12.00;8.00;;;;;20.88;41.39;101493.34;4998998;28;45282;-55
2021/10/18 03:12:18;;;;;;;;;10.00;9.75;;;;;20.86;41.07;101493.44;4997294;28;47470;-55
2021/10/18 03:14:44;;;;;;;;;9.00;8.25;;;;;20.87;41.06;101483.75;4997432;28;45481;-53
2021/10/18 03:17:09;;;;;;;;;11.00;8.00;;;;;20.85;41.46;101489.94;4998528;28;45504;-55
2021/10/18 03:19:34;;;;;;;;;8.25;8.00;;;;;20.87;40.98;101486.38;4999101;28;45510;-56
2021/10/18 03:22:00;;;;;;;;;8.75;7.75;;;;;20.85;41.27;101489.09;4998336;28;45483;-55
2021/10/18 03:24:25;;;;;;;;;8.00;8.00;;;;;20.85;41.65;101491.72;4998406;28;45313;-55
2021/10/18 03:26:52;;;;;;;;;9.50;9.50;;;;;20.85;40.99;101497.00;4998609;28;45335;-55
2021/10/18 03:29:17;;;;;;;;;8.50;7.50;;;;;20.82;41.34;101495.38;4998655;28;45274;-55
2021/10/18 03:31:42;;;;;;;;;6.50;6.00;;;;;20.84;41.22;101505.81;4998213;28;46305;-55
2021/10/18 03:34:08;;;;;;;;;9.25;9.25;;;;;20.84;41.35;101503.19;4998739;28;45446;-55
2021/10/18 03:36:33;;;;;;;;;12.25;9.25;;;;;20.84;41.01;101503.19;4998214;28;45674;-55
2021/10/18 03:38:59;;;;;;;;;11.25;11.00;;;;;20.84;41.21;101497.91;4998453;28;45247;-56
2021/10/18 03:41:24;;;;;;;;;9.00;7.75;;;;;20.83;41.40;101501.47;4998260;28;46801;-56
2021/10/18 03:43:49;;;;;;;;;9.75;8.00;;;;;20.82;41.09;101502.41;4998220;28;45882;-54
2021/10/18 03:46:15;;;;;;;;;8.00;7.75;;;;;20.82;40.97;101500.63;4998481;28;45764;-56
2021/10/18 03:48:40;;;;;;;;;11.50;9.50;;;;;20.82;41.46;101505.03;4998510;28;45689;-56
2021/10/18 03:51:05;;;;;;;;;14.00;12.25;;;;;20.81;41.50;101504.19;4998271;28;45472;-56
2021/10/18 03:53:31;;;;;;;;;8.00;7.00;;;;;20.81;40.95;101511.22;4998019;28;45341;-56
2021/10/18 03:55:56;;;;;;;;;8.75;8.00;;;;;20.82;41.09;101515.56;4998023;28;45262;-56
2021/10/18 03:58:21;;;;;;;;;9.75;9.00;;;;;20.81;41.11;101508.59;4998194;28;45621;-56
2021/10/18 04:00:47;;;;;;;;;10.50;9.00;;;;;20.81;40.90;101520.00;4997830;28;46267;-56
2021/10/18 04:03:12;;;;;;;;;7.25;7.25;;;;;20.79;41.54;101513.06;4980127;28;45254;-56
2021/10/18 04:05:38;;;;;;;;;10.25;9.00;;;;;20.80;41.17;101512.16;4998218;28;45199;-56
2021/10/18 04:08:03;;;;;;;;;8.25;7.75;;;;;20.78;41.55;101514.84;4980534;28;45525;-55
2021/10/18 04:10:32;;;;;;;;;8.00;7.25;;;;;20.78;41.10;101519.28;4997591;28;46301;-56
2021/10/18 04:12:57;;;;;;;;;9.00;9.00;;;;;20.80;41.31;101520.03;4997674;28;45386;-55
2021/10/18 04:15:23;;;;;;;;;11.00;9.00;;;;;20.80;40.97;101522.69;4997732;28;45331;-55
2021/10/18 04:17:48;;;;;;;;;9.25;9.25;;;;;20.80;40.92;101527.94;4997799;28;45457;-55
2021/10/18 04:20:13;;;;;;;;;9.25;9.25;;;;;20.79;41.12;101523.59;4997651;28;45465;-56
2021/10/18 04:22:39;;;;;;;;;7.75;7.25;;;;;20.79;41.10;101523.59;4997867;28;45242;-56
2021/10/18 04:25:05;;;;;;;;;11.00;9.00;;;;;20.77;41.31;101523.69;4997274;28;45318;-55
2021/10/18 04:27:30;;;;;;;;;9.00;7.75;;;;;20.79;41.24;101536.78;4997894;28;45468;-56
2021/10/18 04:29:55;;;;;;;;;6.00;6.00;;;;;20.78;41.08;101529.81;4997365;28;45371;-56
2021/10/18 04:32:21;;;;;;;;;8.25;7.50;;;;;20.78;41.39;101535.09;4997537;28;45194;-56
2021/10/18 04:34:46;;;;;;;;;8.75;8.00;;;;;20.77;41.05;101534.22;4997275;28;45259;-56
2021/10/18 04:37:12;;;;;;;;;8.25;8.25;;;;;20.77;40.97;101539.50;5012975;28;45594;-56
2021/10/18 04:39:37;;;;;;;;;9.75;8.50;;;;;20.77;40.86;101543.91;4997418;28;46088;-56
2021/10/18 04:42:03;;;;;;;;;9.25;8.50;;;;;20.76;41.03;101543.03;4996038;28;45347;-56
2021/10/18 04:44:28;;;;;;;;;11.25;9.75;;;;;20.76;40.86;101544.84;4997447;28;45362;-56
2021/10/18 04:46:54;;;;;;;;;11.00;11.00;;;;;20.76;41.36;101542.22;4997542;28;45533;-55
2021/10/18 04:49:19;;;;;;;;;9.25;9.25;;;;;20.76;41.26;101550.09;4997091;28;46436;-56
2021/10/18 04:51:45;;;;;;;;;8.50;8.00;;;;;20.75;41.26;101546.59;4997103;28;45488;-55
2021/10/18 04:54:10;;;;;;;;;7.50;7.00;;;;;20.73;41.15;101543.16;4996238;28;45361;-56
2021/10/18 04:56:36;;;;;;;;;9.25;9.25;;;;;20.74;40.97;101546.66;4997190;28;45623;-55
2021/10/18 04:59:01;;;;;;;;;10.00;8.25;;;;;20.72;41.39;101552.00;4996845;28;45560;-55
2021/10/18 05:01:26;;;;;;;;;11.00;10.00;;;;;20.73;41.34;101558.09;4996951;28;45314;-56
2021/10/18 05:03:52;;;;;;;;;11.75;8.75;;;;;20.72;41.31;101559.03;4996823;28;45472;-56
2021/10/18 05:06:17;;;;;;;;;9.25;8.00;;;;;20.73;41.04;101569.47;4997336;28;45227;-56
2021/10/18 05:08:42;;;;;;;;;9.50;9.00;;;;;20.72;41.27;101574.84;4997168;28;47237;-56
2021/10/18 05:11:08;;;;;;;;;9.75;8.75;;;;;20.73;40.84;101571.28;4996848;28;45387;-56
2021/10/18 05:13:33;;;;;;;;;9.50;8.25;;;;;20.72;41.29;101566.94;5012303;28;45379;-56
2021/10/18 05:15:59;;;;;;;;;8.25;7.50;;;;;20.71;41.06;101566.09;4997061;28;45284;-56
2021/10/18 05:18:24;;;;;;;;;8.50;8.50;;;;;20.72;40.75;101564.28;4995239;28;46015;-56
2021/10/18 05:20:50;;;;;;;;;13.25;13.25;;;;;20.69;40.13;101574.03;4995372;28;45576;-55
2021/10/18 05:23:16;;;;;;;;;15.25;14.00;;;;;20.59;40.11;101575.38;4996845;28;45307;-56
2021/10/18 05:25:42;;;;;;;;;11.00;11.00;;;;;20.47;40.26;101576.78;4997079;28;45247;-55
2021/10/18 05:28:09;;;;;;;;;11.00;10.00;;;;;20.36;40.00;101571.13;4996601;28;45318;-56
2021/10/18 05:30:34;;;;;;;;;13.25;12.50;;;;;20.27;40.03;101561.81;4996564;28;45341;-55
2021/10/18 05:33:00;;;;;;;;;16.25;14.75;;;;;20.17;40.12;101565.78;4996688;28;45417;-56
2021/10/18 05:35:26;;;;;;;;;13.00;12.50;;;;;20.11;40.13;101576.56;4996857;28;45531;-56
2021/10/18 05:37:52;;;;;;;;;13.75;13.75;;;;;20.05;40.41;101570.63;4995593;28;46654;-56
2021/10/18 05:40:19;;;;;;;;;17.50;15.00;;;;;19.99;40.42;101570.91;4996577;28;45899;-55
2021/10/18 05:42:45;;;;;;;;;15.25;14.00;;;;;19.92;40.59;101567.66;4996976;28;45470;-54
2021/10/18 05:45:11;;;;;;;;;14.75;11.75;;;;;19.89;40.79;101566.94;4997197;28;45631;-50
2021/10/18 05:47:54;;;;;;;;;18.50;17.75;;;;;19.84;40.40;101568.84;4996343;28;45549;-52
2021/10/18 05:50:22;;;;;;;;;18.75;16.50;;;;;19.77;40.42;101569.13;4996209;28;45258;-54
2021/10/18 05:52:47;;;;;;;;;22.75;20.50;;;;;19.74;40.42;101570.97;4996458;28;45368;-53
2021/10/18 05:55:13;;;;;;;;;19.75;17.00;;;;;19.70;40.78;101567.63;4996801;28;45223;-51
2021/10/18 05:57:52;;;;;;;;;18.50;16.50;;;;;19.66;40.84;101559.94;4996155;28;46459;-52
2021/10/18 06:00:20;;;;;;;;;20.25;19.25;;;;;19.62;40.62;101564.47;4996066;28;45342;-50
2021/10/18 06:02:45;;;;;;;;;19.75;17.75;;;;;19.58;40.75;101573.38;4995147;28;45333;-52
2021/10/18 06:05:11;;;;;;;;;15.75;15.75;;;;;19.56;40.78;101572.59;4996519;28;45362;-55
2021/10/18 06:07:37;;;;;;;;;18.25;17.50;;;;;19.56;40.79;101575.22;4996040;28;46443;-53
2021/10/18 06:10:04;;;;;;;;;17.50;17.00;;;;;19.55;41.04;101584.03;4995986;28;45391;-55
2021/10/18 06:12:29;;;;;;;;;18.00;17.00;;;;;19.58;40.89;101589.16;4996087;28;45348;-56
2021/10/18 06:14:54;;;;;;;;;17.75;17.00;;;;;19.57;40.78;101588.31;4996236;28;45298;-56
2021/10/18 06:17:20;;;;;;;;;20.75;20.00;;;;;19.59;40.49;101589.09;4995875;28;45445;-55
2021/10/18 06:19:45;;;;;;;;;16.25;16.25;;;;;19.60;40.59;101592.59;4996252;28;45445;-56
2021/10/18 06:22:10;;;;;;;;;19.75;19.50;;;;;19.60;40.70;101587.31;4996039;28;45377;-56
2021/10/18 06:24:36;;;;;;;;;18.00;17.25;;;;;19.59;40.54;101590.88;4996138;28;45500;-56
2021/10/18 06:27:01;;;;;;;;;19.50;16.00;;;;;19.60;40.72;101589.94;4995780;28;45520;-56
2021/10/18 06:29:27;;;;;;;;;17.50;16.75;;;;;19.60;40.59;101589.94;4995827;28;45340;-56
2021/10/18 06:31:52;;;;;;;;;20.25;13.75;;;;;19.59;40.67;101591.75;4995973;28;45362;-56
2021/10/18 06:34:18;;;;;;;;;20.00;17.00;;;;;19.55;40.31;101584.88;4978616;28;45453;-56
2021/10/18 06:36:43;;;;;;;;;19.50;17.50;;;;;19.57;40.57;101595.31;4995966;28;45491;-54
2021/10/18 06:39:09;;;;;;;;;18.25;18.25;;;;;19.55;40.74;101595.41;4995785;28;45370;-55
2021/10/18 06:41:34;;;;;;;;;22.25;18.75;;;;;19.53;40.32;101591.13;4995894;28;45359;-56
2021/10/18 06:43:59;;;;;;;;;18.25;18.00;;;;;19.51;40.62;101598.22;4995814;28;45314;-55
2021/10/18 06:46:25;;;;;;;;;17.75;17.75;;;;;19.47;40.99;101600.94;4995525;28;46209;-56
2021/10/18 06:48:50;;;;;;;;;14.75;13.50;;;;;19.44;40.35;101601.09;4997519;28;45295;-56
2021/10/18 06:51:15;;;;;;;;;22.75;17.25;;;;;19.45;40.58;101602.81;4999360;28;45270;-53
2021/10/18 06:53:41;;;;;;;;;23.00;18.75;;;;;19.42;40.55;101599.41;4999158;28;45292;-55
2021/10/18 06:56:06;;;;;;;;;17.25;15.75;;;;;19.41;40.35;101608.22;4998685;28;46078;-54
2021/10/18 06:58:33;;;;;;;;;17.50;17.50;;;;;19.37;40.58;101607.47;4998699;28;45432;-53
2021/10/18 07:00:59;;;;;;;;;14.50;14.00;;;;;19.36;40.66;101605.75;4999049;28;45301;-53
2021/10/18 07:03:24;;;;;;;;;18.25;16.50;;;;;19.34;40.45;101612.00;4998790;28;45432;-54
2021/10/18 07:05:50;;;;;;;;;15.75;15.75;;;;;19.31;40.63;101611.19;4998703;28;46588;-54
2021/10/18 07:08:18;;;;;;;;;18.50;15.75;;;;;19.32;41.02;101612.06;4981617;28;45302;-51
2021/10/18 07:10:43;;;;;;;;;17.50;16.00;;;;;19.34;40.97;101618.13;4998581;28;45442;-53
2021/10/18 07:13:09;;;;;;;;;17.50;16.75;;;;;19.34;40.65;101619.88;4997589;28;46035;-51
2021/10/18 07:15:39;;;;;;;;;16.25;16.25;;;;;19.31;40.37;101619.06;4998435;28;47014;-52
2021/10/18 07:18:07;;;;;;;;;18.00;15.50;;;;;19.32;40.82;101630.47;4998452;28;45431;-53
2021/10/18 07:20:32;;;;;;;;;15.25;15.25;;;;;19.30;40.80;101621.78;4998630;28;45342;-53
2021/10/18 07:23:00;;;;;;;;;17.00;15.50;;;;;19.28;41.07;101618.34;4998764;28;45423;-55
2021/10/18 07:25:26;;;;;;;;;16.75;15.00;;;;;19.27;40.95;101622.75;4998311;28;45838;-53
2021/10/18 07:27:51;;;;;;;;;17.25;16.25;;;;;19.23;40.59;101615.03;4980194;28;45433;-54
2021/10/18 07:30:17;;;;;;;;;14.25;13.00;;;;;19.26;40.55;101617.53;4998827;28;45421;-54
2021/10/18 07:32:45;;;;;;;;;19.50;16.75;;;;;19.24;40.90;101620.22;4998584;28;45420;-52
2021/10/18 07:35:13;;;;;;;;;17.00;15.75;;;;;19.21;40.57;101616.88;4998261;28;45438;-54
2021/10/18 07:37:40;;;;;;;;;16.00;14.50;;;;;19.22;40.77;101613.31;4998080;28;45332;-54
2021/10/18 07:40:06;;;;;;;;;23.50;18.75;;;;;19.22;40.52;101610.69;4998462;28;45877;-55
2021/10/18 07:42:32;;;;;;;;;18.75;18.75;;;;;19.22;40.93;101618.59;4998299;28;45238;-54
2021/10/18 07:44:57;;;;;;;;;16.50;15.25;;;;;19.21;40.85;101619.50;4980462;28;46554;-54
2021/10/18 07:47:23;;;;;;;;;17.75;14.75;;;;;19.23;41.17;101618.50;4998082;28;45384;-54
2021/10/18 07:49:49;;;;;;;;;19.00;18.00;;;;;19.22;41.08;101606.28;4997216;28;45360;-55
2021/10/18 07:52:15;;;;;;;;;23.50;17.50;;;;;19.22;40.79;101605.44;4998330;28;45581;-53
2021/10/18 07:54:42;;;;;;;;;19.25;17.50;;;;;19.20;41.07;101610.75;4997899;28;46712;-56
2021/10/18 07:57:09;;;;;;;;;14.75;12.00;;;;;19.20;40.90;101609.91;4997908;28;45820;-55
2021/10/18 07:59:35;;;;;;;;;18.25;15.75;;;;;19.23;41.02;101610.63;4979969;28;45341;-55
2021/10/18 08:02:00;;;;;;;;;23.50;17.00;;;;;19.24;41.08;101617.59;4998132;28;45621;-54
2021/10/18 08:04:26;;;;;;;;;17.25;15.25;;;;;19.27;41.33;101621.88;4997652;28;46310;-53
2021/10/18 08:06:52;;;;;;;;;16.00;12.25;;;;;19.28;41.01;101631.47;4998112;28;45730;-54
2021/10/18 08:09:17;;;;;;;;;15.00;15.00;;;;;19.30;41.39;101633.13;4998326;28;45191;-55
2021/10/18 08:11:43;;;;;;;;;18.00;17.75;;;;;19.34;41.10;101636.53;4998053;28;45184;-55
2021/10/18 08:14:08;;;;;;;;;15.75;14.75;;;;;19.36;41.45;101634.69;4997616;28;45364;-49
2021/10/18 08:16:34;;;;;;;;;20.25;16.50;;;;;19.37;41.15;101623.25;4997597;28;45325;-53
2021/10/18 08:19:00;;;;;;;;;17.75;17.25;;;;;19.39;40.98;101634.56;4997739;28;45350;-52
2021/10/18 08:21:25;;;;;;;;;17.50;15.25;;;;;19.42;41.54;101644.09;4997974;28;45532;-54
2021/10/18 08:23:51;;;;;;;;;18.00;16.00;;;;;19.44;41.22;101645.78;4997746;28;45568;-54
2021/10/18 08:26:17;;;;;;;;;25.25;19.00;;;;;19.46;40.93;101648.34;4997424;28;45512;-55
2021/10/18 08:28:42;;;;;;;;;15.25;15.25;;;;;19.45;41.31;101655.38;4997645;28;45362;-53
2021/10/18 08:31:09;;;;;;;;;16.25;15.50;;;;;19.43;41.47;101659.84;4997767;28;45565;-54
2021/10/18 08:33:35;;;;;;;;;12.50;11.50;;;;;19.43;41.50;101658.97;5012579;28;47389;-55
2021/10/18 08:36:04;;;;;;;;;18.00;13.50;;;;;19.44;40.95;101658.94;5012629;28;45794;-53
2021/10/18 08:41:16;;;;;;;;;19.25;17.50;;;;;19.45;41.77;101652.75;4997704;28;45177;-52
2021/10/18 08:46:08;;;;;;;;;17.00;16.25;;;;;19.47;41.26;101629.88;4997251;28;45486;-53
2021/10/18 08:48:34;;;;;;;;;15.00;14.25;;;;;19.55;41.35;101632.22;4997468;28;45386;-54
2021/10/18 08:50:59;;;;;;;;;15.25;14.00;;;;;19.61;41.34;101625.84;4997442;28;45508;-54
2021/10/18 08:53:25;;;;;;;;;18.50;13.75;;;;;19.68;41.37;101637.84;4997089;28;45310;-55
2021/10/18 08:55:50;;;;;;;;;14.00;14.00;;;;;19.73;41.20;101627.16;4997232;28;45298;-53
2021/10/18 08:58:17;;;;;;;;;15.75;13.25;;;;;19.78;41.24;101628.69;4997237;28;45421;-54
2021/10/18 09:00:51;;;;;;;;;15.75;12.25;;;;;19.81;41.10;101622.44;4997349;28;45554;-55
2021/10/18 09:03:33;;;;;;;;;13.25;12.50;;;;;19.86;41.04;101623.13;4996600;28;45607;-55
2021/10/18 09:06:08;;;;;;;;;14.25;12.00;;;;;19.91;41.08;101625.59;4996911;28;45350;-55
2021/10/18 09:08:34;;;;;;;;;15.50;12.25;;;;;19.95;41.34;101627.19;4997046;28;45279;-54
2021/10/18 09:11:17;;;;;;;;;12.75;12.75;;;;;19.99;41.21;101628.78;4979025;28;45263;-54
2021/10/18 09:13:51;;;;;;;;;14.25;12.25;;;;;20.05;41.47;101617.16;4996683;28;45541;-56
2021/10/18 09:16:32;;;;;;;;;13.50;11.50;;;;;20.10;40.97;101622.22;4978851;28;45842;-55
2021/10/18 09:19:09;;;;;;;;;14.50;14.25;;;;;20.11;41.04;101611.63;4996986;28;45270;-52
2021/10/18 09:21:39;;;;;;;;;14.00;13.00;;;;;20.16;40.87;101612.31;4997072;28;45783;-56
2021/10/18 09:24:07;;;;;;;;;15.75;12.50;;;;;20.19;40.90;101606.06;4996524;28;45645;-55
2021/10/18 09:26:34;;;;;;;;;16.25;12.25;;;;;20.19;40.95;101612.16;4996526;28;45358;-53
2021/10/18 09:29:15;;;;;;;;;16.75;15.00;;;;;20.21;40.80;101604.22;4996751;28;45330;-55
2021/10/18 09:31:42;;;;;;;;;14.75;14.00;;;;;20.20;40.96;101607.75;4997025;28;45350;-54
2021/10/18 09:34:15;;;;;;;;;16.00;15.50;;;;;20.23;41.10;101612.88;4996397;28;45342;-56
2021/10/18 09:36:42;;;;;;;;;14.50;11.75;;;;;20.25;41.00;101611.03;4996392;28;45180;-54
2021/10/18 09:39:17;;;;;;;;;11.50;11.50;;;;;20.25;41.29;101616.31;4996634;28;45457;-54
2021/10/18 09:41:54;;;;;;;;;13.00;12.00;;;;;20.28;41.08;101608.28;4996858;28;45365;-54
2021/10/18 09:44:30;;;;;;;;;16.50;13.75;;;;;20.28;41.11;101603.03;4996423;28;46198;-53
2021/10/18 10:54:04;;;;;;;;;14.50;11.00;;;;;20.46;44.00;101621.59;4999209;28;45377;-54
2021/10/18 10:56:32;;;;;;;;;14.00;12.50;;;;;20.47;43.50;101615.41;4999393;28;45382;-52
2021/10/18 10:59:21;;;;;;;;;21.00;17.50;;;;;20.48;43.55;101611.84;4999446;28;45608;-53
2021/10/18 11:01:46;;;;;;;;;15.00;12.50;;;;;20.48;43.25;101618.00;4998696;28;46932;-53
2021/10/18 11:04:30;;;;;;;;;17.75;14.00;;;;;20.47;43.72;101603.09;4998623;28;45465;-55
2021/10/18 11:07:06;;;;;;;;;18.75;15.00;;;;;20.48;43.32;101593.41;4999236;28;45232;-53
2021/10/18 11:09:41;;;;;;;;;16.75;15.00;;;;;20.48;43.83;101596.94;4998772;28;45392;-55
2021/10/18 11:12:26;;;;;;;;;19.25;13.00;;;;;20.48;43.76;101590.78;4998697;28;46553;-55
2021/10/18 11:15:02;;;;;;;;;15.75;13.75;;;;;20.48;43.82;101586.38;4988054;28;45162;-55
2021/10/18 11:17:40;;;;;;;;;18.00;14.25;;;;;20.49;44.03;101595.13;4998763;28;45315;-55
2021/10/18 11:20:14;;;;;;;;;18.50;15.50;;;;;20.49;44.00;101605.66;4998880;28;45399;-55
2021/10/18 11:22:42;;;;;;;;;21.00;18.25;;;;;20.51;44.24;101598.56;4998305;28;46157;-55
2021/10/18 11:25:17;;;;;;;;;21.75;17.75;;;;;20.52;44.01;101589.75;4998339;28;45392;-55
2021/10/18 11:27:44;;;;;;;;;22.50;20.75;;;;;20.53;44.47;101602.00;4998680;28;45265;-53
2021/10/18 11:30:13;;;;;;;;;21.25;18.25;;;;;20.49;44.59;101609.16;4998744;28;45626;-53
2021/10/18 11:32:39;;;;;;;;;23.25;19.25;;;;;20.48;44.55;101614.47;4998221;28;45461;-54
2021/10/18 11:35:10;;;;;;;;;22.25;21.00;;;;;20.45;45.27;101607.56;4997192;28;45358;-54
2021/10/18 11:37:51;;;;;;;;;21.50;18.25;;;;;20.47;45.47;101594.34;4998281;28;45409;-52
2021/10/18 11:40:18;;;;;;;;;17.50;15.00;;;;;20.55;45.61;101598.34;4980820;28;45333;-59
2021/10/18 11:42:56;;;;;;;;;16.25;15.00;;;;;20.66;44.92;101595.28;4998023;28;46861;-56
2021/10/18 11:45:23;;;;;;;;;19.50;16.00;;;;;20.72;45.04;101593.28;4998124;28;45982;-55
2021/10/18 11:47:49;;;;;;;;;21.00;15.00;;;;;20.74;44.66;101587.03;4998026;28;45325;-55
2021/10/18 11:50:24;;;;;;;;;20.25;15.75;;;;;20.77;45.04;101572.91;4998362;28;45660;-55
2021/10/18 11:53:01;;;;;;;;;16.75;14.00;;;;;20.77;44.57;101570.25;4997856;28;45663;-55
2021/10/18 11:55:30;;;;;;;;;19.50;16.00;;;;;20.78;44.72;101564.06;4997995;28;45314;-57
2021/10/18 11:58:04;;;;;;;;;19.50;16.00;;;;;20.76;44.95;101544.84;4997926;28;45331;-56
2021/10/18 12:00:41;;;;;;;;;15.25;13.75;;;;;20.77;44.77;101536.84;4998476;28;45335;-55
2021/10/18 12:03:11;;;;;;;;;16.75;14.00;;;;;20.79;44.84;101547.31;4997535;28;46408;-56
2021/10/18 12:05:45;;;;;;;;;19.25;14.00;;;;;20.79;44.78;101542.03;4997803;28;45508;-56
2021/10/18 12:08:13;;;;;;;;;17.50;14.25;;;;;20.79;44.36;101548.19;4997797;28;45377;-56
2021/10/18 12:10:40;;;;;;;;;18.50;13.50;;;;;20.80;44.28;101527.94;4998150;28;45604;-54
2021/10/18 12:13:40;;;;;;;;;7.00;4.00;;;;;20.80;44.66;101526.19;4997695;28;45303;-55
2021/10/18 12:16:08;;;;;;;;;15.50;14.25;;;;;20.82;45.28;101515.56;4997410;28;45417;-54
2021/10/18 12:18:42;;;;;;;;;16.50;14.25;;;;;20.81;45.72;101532.28;4997855;28;45409;-56
2021/10/18 12:21:27;;;;;;;;;14.25;13.50;;;;;20.81;46.38;101532.28;4997755;28;45425;-55
2021/10/18 12:23:55;;;;;;;;;14.25;12.00;;;;;20.81;45.83;101530.53;4997414;28;46067;-55
2021/10/18 12:26:39;;;;;;;;;17.25;15.00;;;;;20.79;46.26;101518.34;4997599;28;45247;-55